Woodland Park Weather Observations

home  gauges   today   yesterday   NOAA reports   graphs 
this month    this year    monthly records   extremes  

Observations from 2/20/2019 9:45 pm back to 2/17/2019 10:00 pm half hourly.

 

Observations previous 72 hours
 
Date/Time
MST
 
Temp
°F
App
Temp
°F
Heat
Index
°F
Wind
Chill
°F
Dew
Point
°F
Rel
Hum
%
 
Dir
 
 
Spd
kph
Wind
Gust
kph
 
Speed
MPH
 
Gust
MPH
Press
MSL
in
Rain
Since 12am
in
20/09:45pm 13.6 13.6 13.6 -11.3 31 0.7 6.7 29.70 0.00 0 0
20/09:15pm 9.3 9.3 9.3 -15.1 31 0.0 0.0 29.70 0.00 0 0
20/08:45pm 12.9 12.9 12.9 -11.3 32 0.0 0.7 29.69 0.00 0 0
20/08:15pm 12.9 12.9 12.9 -10.7 33 0.0 1.3 29.69 0.00 0 0
20/07:45pm 14.2 14.2 14.2 -11.5 30 0.0 5.4 29.68 0.00 0 0
20/07:15pm 14.7 14.7 14.7 -11.7 29 2.0 4.0 29.68 0.00 0 0
20/06:45pm 14.0 14.0 14.0 -14.5 26 0.0 1.3 29.67 0.00 0 0
20/06:15pm 15.3 15.3 15.3 -15.8 23 0.7 2.0 29.65 0.00 0 0
20/05:45pm 17.6 17.6 17.6 -18.6 18 2.7 4.7 29.66 0.00 0 0
20/05:15pm 20.3 20.3 20.3 -12.4 22 0.0 12.1 29.65 0.00 0 0
20/04:45pm 21.0 21.0 15.3 -11.8 22 4.0 8.7 29.65 0.00 0 0
20/04:15pm 24.6 24.6 24.6 -10.6 20 2.7 16.1 29.63 0.00 0 0
20/03:45pm 25.0 25.0 16.7 -11.4 19 7.4 13.4 29.64 0.00 0 0
20/03:15pm 25.2 25.2 17.4 -11.2 19 6.7 9.4 29.62 0.00 0 0
20/02:45pm 24.8 24.8 24.8 -11.5 19 2.7 11.4 29.61 0.00 0 0
20/02:15pm 23.2 23.2 17.0 -11.8 20 4.7 12.1 29.62 0.00 0 0
20/01:45pm 22.6 22.6 14.4 -11.3 21 6.7 13.4 29.61 0.00 0 0
20/01:15pm 20.5 20.5 13.1 -12.2 22 5.4 11.4 29.61 0.00 0 0
20/12:45pm 20.5 20.5 13.9 -12.2 22 4.7 13.4 29.61 0.00 0 0
20/12:15pm 18.9 18.9 18.9 -17.5 18 2.0 12.1 29.61 0.00 0 0
20/11:45am 17.6 17.6 8.4 -17.5 19 6.7 12.1 29.61 0.00 0 0
20/11:15am 15.6 15.6 9.1 -17.2 21 4.0 12.8 29.61 0.00 0 0
20/10:45am 13.3 13.3 2.5 -18.3 22 7.4 22.8 29.60 0.00 0 0
20/10:15am 11.5 11.5 2.5 -16.6 26 5.4 8.1 29.60 0.00 0 0
20/09:45am 10.0 10.0 10.0 -22.0 21 2.0 11.4 29.60 0.00 0 0
20/09:15am 10.6 10.6 10.6 -18.2 25 1.3 12.1 29.60 0.00 0 0
20/08:45am 9.9 9.9 9.9 -22.1 21 2.7 5.4 29.60 0.00 0 0
20/08:15am 6.8 6.8 6.8 -23.0 23 0.7 7.4 29.59 0.00 0 0
20/07:45am 5.4 5.4 5.4 -21.2 27 2.7 6.7 29.58 0.00 0 0
20/07:15am 4.5 4.5 -5.8 -18.7 32 5.4 8.7 29.58 0.00 0 0
20/07:13am 4.1 4.1 -4.2 -18.5 33 4.0 6.7 29.57 0.00 0 0
20/06:43am 3.4 3.4 3.4 -19.9 32 0.7 2.0 29.57 0.00 0 0
20/06:13am 4.6 4.6 4.6 -17.6 34 2.0 3.4 29.57 0.00 0 0
20/05:43am 4.5 4.5 -4.9 -17.8 34 4.7 10.1 29.55 0.00 0 0
20/05:13am 4.6 4.6 -3.6 -16.0 37 4.0 8.7 29.55 0.00 0 0
20/04:43am 3.2 3.2 -4.0 -15.3 41 3.4 6.7 29.54 0.00 0 0
20/04:13am 3.2 3.2 3.2 -14.8 42 0.0 0.7 29.54 0.00 0 0
20/03:43am 3.7 3.7 3.7 -13.8 43 0.7 1.3 29.54 0.00 0 0
20/03:13am 4.1 4.1 4.1 -13.5 43 0.7 1.3 29.55 0.00 0 0
20/02:43am 3.7 3.7 3.7 -11.2 49 0.0 0.0 29.56 0.00 0 0
20/02:13am 4.1 4.1 4.1 -7.1 59 0.0 0.7 29.57 0.00 0 0
20/01:43am 2.3 2.3 2.3 -7.8 62 0.0 1.3 29.57 0.00 0 0
20/01:13am 2.1 2.1 2.1 -7.6 63 0.0 0.0 29.58 0.00 0 0
20/12:43am 3.0 3.0 3.0 -5.8 66 0.0 0.0 29.59 0.00 0 0
20/12:13am 1.4 1.4 1.4 -8.0 64 0.0 0.0 29.60 0.00 0 0
19/11:43pm 2.3 2.3 2.3 -6.8 65 0.0 0.0 29.61 0.00 0 0
19/11:13pm 2.3 2.3 2.3 -6.8 65 0.0 0.0 29.61 0.00 0 0
19/10:43pm 3.4 3.4 3.4 -5.8 65 0.0 0.0 29.62 0.00 0 0
 
Date/Time
MST
 
Temp
°F
App
Temp
°F
Heat
Index
°F
Wind
Chill
°F
Dew
Point
°F
Rel
Hum
%
 
Dir
 
 
Spd
km/h
Wind
Gust
km/h
 
Speed
MPH
 
Gust
MPH
Press
MSL
in
Rain
Since 9am
in
 
Solar
W/m2
 
UV
Index
19/10:00pm 5.0 5.0 5.0 -4.1 65 0.0 0.0 29.64 0.00 0 0
19/09:30pm 5.2 5.2 5.2 -3.9 65 0.0 0.0 29.64 0.00 0 0
19/09:00pm 6.3 6.3 6.3 -2.9 65 0.0 0.0 29.65 0.00 0 0
19/08:30pm 7.5 7.5 7.5 -1.7 65 0.0 2.0 29.65 0.00 0 0
19/08:00pm 7.9 7.9 7.9 -1.3 65 0.0 0.0 29.65 0.00 0 0
19/07:30pm 8.1 8.1 8.1 -1.2 65 0.0 2.7 29.66 0.00 0 0
19/07:00pm 8.6 8.6 8.6 -0.7 65 1.3 2.7 29.66 0.00 0 0
19/06:30pm 9.3 9.3 9.3 0.4 66 0.0 0.7 29.65 0.00 0 0
19/06:00pm 9.5 9.5 9.5 -0.1 64 0.0 2.7 29.64 0.00 0 0
19/05:30pm 10.2 10.2 10.2 0.6 64 1.3 3.4 29.63 0.00 0 0
19/05:00pm 10.6 10.6 10.6 1.6 66 0.7 4.0 29.64 0.00 0 0
19/04:30pm 12.4 12.4 12.4 1.9 62 0.7 5.4 29.64 0.00 0 0
19/04:00pm 10.2 10.2 10.2 -0.8 60 0.0 1.3 29.63 0.00 0 0
19/03:30pm 9.9 9.9 9.9 -1.9 58 2.7 7.4 29.62 0.00 0 0
19/03:00pm 12.0 12.0 6.0 0.9 60 3.4 7.4 29.62 0.00 0 0
19/02:30pm 13.3 13.3 7.5 1.7 59 3.4 8.1 29.62 0.00 0 0
19/02:00pm 11.7 11.7 4.5 1.9 64 4.0 7.4 29.62 0.00 0 0
19/01:30pm 11.7 11.7 11.7 2.6 66 2.7 8.1 29.63 0.00 0 0
19/01:00pm 10.4 10.4 1.2 2.0 68 5.4 8.1 29.65 0.00 0 0
19/12:30pm 12.0 12.0 4.9 4.8 72 4.0 7.4 29.66 0.00 0 0
19/12:00pm 12.4 12.4 12.4 5.2 72 2.0 5.4 29.67 0.00 0 0
19/11:30am 11.5 11.5 11.5 4.9 74 1.3 4.0 29.68 0.00 0 0
19/11:00am 13.6 13.6 13.6 7.0 74 0.7 3.4 29.69 0.00 0 0
19/10:30am 14.0 14.0 14.0 7.0 73 1.3 3.4 29.70 0.00 0 0
19/10:00am 11.3 11.3 11.3 4.4 73 0.7 2.7 29.70 0.00 0 0
19/09:30am 8.4 8.4 8.4 0.1 68 0.7 2.7 29.72 0.00 0 0
19/09:00am 8.4 8.4 8.4 -0.2 67 0.7 3.4 29.73 0.00 0 0
19/08:30am 3.2 3.2 3.2 -6.1 64 1.3 3.4 29.73 0.00 0 0
19/08:00am 2.7 2.7 2.7 -6.6 64 1.3 3.4 29.74 0.00 0 0
19/07:30am -0.4 -0.4 -0.4 -11.5 58 0.7 2.0 29.73 0.00 0 0
19/07:00am -0.6 -0.6 -0.6 -11.3 59 0.7 2.0 29.74 0.00 0 0
19/06:30am 0.0 0.0 0.0 -10.8 59 2.0 4.0 29.74 0.00 0 0
19/06:00am -0.4 -0.4 -0.4 -11.5 58 2.0 4.0 29.72 0.00 0 0
19/05:43am -0.6 -0.6 -0.6 -11.5 59 1.3 2.0 29.73 0.00 0 0
19/05:13am -0.2 -0.2 -0.2 -11.2 59 1.3 2.0 29.74 0.00 0 0
19/04:43am 0.1 0.1 0.1 -10.8 59 2.0 2.7 29.75 0.00 0 0
19/04:13am 0.3 0.3 0.3 -10.7 59 2.7 4.0 29.74 0.00 0 0
19/03:43am -0.2 -0.2 -0.2 -11.5 58 2.7 4.0 29.75 0.00 0 0
19/03:13am -0.8 -0.8 -0.8 -11.7 59 0.7 2.0 29.75 0.00 0 0
19/02:43am -1.8 -1.8 -1.8 -13.0 58 1.3 2.0 29.77 0.00 0 0
19/02:13am -2.4 -2.4 -2.4 -13.2 59 1.3 2.0 29.77 0.00 0 0
19/01:43am -2.0 -2.0 -2.0 -13.2 58 0.7 1.3 29.77 0.00 0 0
19/01:13am -1.7 -1.7 -1.7 -12.5 59 1.3 2.0 29.80 0.00 0 0
19/12:43am -1.8 -1.8 -1.8 -12.7 59 1.3 2.7 29.80 0.00 0 0
19/12:13am -1.8 -1.8 -1.8 -12.7 59 2.0 3.4 29.81 0.00 0 0
18/11:43pm -1.1 -1.1 -1.1 -12.0 59 0.7 1.3 29.81 0.00 0 0
18/11:13pm -1.3 -1.3 -1.3 -12.2 59 0.7 1.3 29.82 0.00 0 0
18/10:43pm -0.9 -0.9 -0.9 -11.8 59 2.0 2.7 29.83 0.00 0 0
 
Date/Time
WST
 
Temp
°F
App
Temp
°F
Heat
Index
°F
Wind
Chill
°F
Dew
Point
°F
Rel
Hum
%
 
Dir
 
 
Spd
km/h
Wind
Gust
km/h
 
Spd
kts
 
Gust
kts
Press
MSL
in
Rain
Since 9am
in
 
Solar
W/m2
 
UV
Index
18/10:00pm 0.5 0.5 0.5 -10.3 59 0.7 2.7 29.85 0.00 0 0
18/09:30pm -0.2 -0.2 -0.2 -11.0 59 0.0 1.3 29.84 0.00 0 0
18/09:00pm 0.0 0.0 0.0 -10.8 59 0.0 1.3 29.85 0.00 0 0
18/08:30pm -0.2 -0.2 -0.2 -11.0 59 2.7 4.0 29.86 0.00 0 0
18/08:00pm -0.4 -0.4 -0.4 -11.2 59 2.0 6.0 29.85 0.00 0 0
18/07:30pm -0.2 -0.2 -0.2 -11.0 59 2.7 5.4 29.85 0.00 0 0
18/07:00pm 0.3 0.3 0.3 -10.1 60 2.0 6.0 29.84 0.00 0 0
18/06:30pm 0.3 0.3 -7.3 -9.8 61 3.4 7.4 29.84 0.00 0 0
18/06:00pm 1.0 1.0 -7.8 -8.8 62 4.0 8.7 29.84 0.00 0 0
18/05:30pm 1.8 1.8 -5.7 -6.5 67 3.4 8.7 29.84 0.00 0 0
18/05:00pm 3.0 3.0 -5.5 -6.0 65 4.0 8.1 29.83 0.00 0 0
18/04:30pm 5.9 5.9 5.9 -4.9 60 2.7 8.7 29.84 0.00 0 0
18/04:00pm 8.6 8.6 2.1 -4.2 55 3.4 7.4 29.84 0.00 0 0
18/03:30pm 8.4 8.4 -0.2 -3.6 57 4.7 8.1 29.84 0.00 0 0
18/03:00pm 12.2 12.2 5.1 -0.4 56 4.0 8.7 29.83 0.00 0 0
18/02:30pm 13.1 13.1 7.2 1.2 58 3.4 6.7 29.83 0.00 0 0
18/02:00pm 9.5 9.5 3.1 -2.9 56 3.4 6.7 29.85 0.00 0 0
18/01:30pm 11.5 11.5 5.4 1.1 62 3.4 5.4 29.85 0.00 0 0
18/01:00pm 11.8 11.8 4.7 1.1 61 4.0 6.7 29.85 0.00 0 0
18/12:30pm 11.7 11.7 11.7 0.5 60 1.3 6.0 29.85 0.00 0 0
18/12:00pm 11.3 11.3 11.3 -0.2 59 1.3 5.4 29.87 0.00 0 0
18/11:30am 9.9 9.9 9.9 -2.2 57 0.7 3.4 29.88 0.00 0 0
18/11:00am 8.8 8.8 8.8 -2.5 59 2.0 4.0 29.89 0.00 0 0
18/10:30am 8.8 8.8 8.8 -2.2 60 1.3 2.7 29.89 0.00 0 0
18/10:00am 7.3 7.3 7.3 -3.5 60 0.7 3.4 29.89 0.00 0 0
18/09:30am 4.5 4.5 4.5 -6.2 60 2.0 2.7 29.88 0.00 0 0
18/09:00am 5.5 5.5 5.5 -3.9 64 0.0 2.7 29.90 0.00 0 0
18/09:00am 5.5 5.5 5.5 -3.9 64 0.0 2.7 29.90 0.00 0 0
18/08:13am 2.8 2.8 2.8 -6.6 64 1.3 2.0 29.90 0.00 0 0
18/07:43am -1.3 -1.3 -1.3 -12.2 59 0.7 1.3 29.90 0.00 0 0
18/07:13am -2.2 -2.2 -2.2 -13.0 59 0.7 1.3 29.89 0.00 0 0
18/06:43am -0.6 -0.6 -0.6 -11.2 60 2.7 3.4 29.88 0.00 0 0
18/06:13am -0.2 -0.2 -0.2 -11.2 59 0.7 1.3 29.88 0.00 0 0
18/05:43am -0.6 -0.6 -0.6 -11.2 60 1.3 2.7 29.87 0.00 0 0
18/05:13am 0.1 0.1 0.1 -10.5 60 2.0 4.0 29.87 0.00 0 0
18/04:43am 1.0 1.0 1.0 -9.6 60 0.7 1.3 29.88 0.00 0 0
18/04:13am 1.4 1.4 1.4 -7.6 65 2.0 4.0 29.87 0.00 0 0
18/03:43am 2.1 2.1 2.1 -7.0 65 2.0 2.7 29.86 0.00 0 0
18/03:13am 2.3 2.3 2.3 -6.8 65 1.3 2.7 29.86 0.00 0 0
18/02:43am 3.2 3.2 3.2 -5.9 65 2.7 4.7 29.87 0.00 0 0
18/02:13am 4.5 4.5 4.5 -4.4 66 1.3 2.7 29.87 0.00 0 0
18/01:43am 4.8 4.8 -3.4 -3.7 67 4.0 6.0 29.87 0.00 0 0
18/01:13am 6.1 6.1 6.1 -2.5 67 2.7 4.7 29.86 0.00 0 0
18/12:43am 7.5 7.5 7.5 -0.8 68 2.7 4.0 29.87 0.00 0 0
18/12:13am 8.6 8.6 2.1 0.2 68 3.4 4.0 29.87 0.00 0 0
17/11:43pm 9.3 9.3 9.3 0.9 68 0.7 2.0 29.86 0.00 0 0
17/11:13pm 8.4 8.4 8.4 0.0 68 0.0 0.0 29.87 0.00 0 0
17/10:43pm 9.3 9.3 9.3 0.9 68 0.0 0.7 29.87 0.00 0 0
17/10:00pm 11.7 11.7 11.7 5.1 74 0.0 3.4 29.87 0.00 0 0
 
Date/Time
MST
 
Temp
°F
App
Temp
°F
Heat
Index
°F
Wind
Chill
°F
Dew
Point
°F
Rel
Hum
%
 
Dir
 
 
Spd
km/h
Wind
Gust
km/h
 
Speed
MPH
 
Gust
MPH
Press
MSL
in
Rain
Since 9am
in
 
Solar
W/m2
 
UV
Index




page updated 2/20/2019 9:45:01 PM
powered by  cumulus v1.9.4 (1099)
cumulus software support forum